sensor_id;sensor_type;location;lat;lon;timestamp;pressure;altitude;pressure_sealevel;temperature;humidity
13041;BME280;6587;42.728;23.288;2023-05-25T00:00:37;95087.44;;;15.86;100.00
13041;BME280;6587;42.728;23.288;2023-05-25T00:03:04;95092.88;;;15.68;100.00
13041;BME280;6587;42.728;23.288;2023-05-25T00:05:32;95095.88;;;15.87;100.00
13041;BME280;6587;42.728;23.288;2023-05-25T00:08:00;95096.66;;;15.91;100.00
13041;BME280;6587;42.728;23.288;2023-05-25T00:10:28;95090.84;;;15.85;100.00
13041;BME280;6587;42.728;23.288;2023-05-25T00:12:55;95087.31;;;15.93;100.00
13041;BME280;6587;42.728;23.288;2023-05-25T00:15:22;95090.13;;;15.80;100.00
13041;BME280;6587;42.728;23.288;2023-05-25T00:17:48;95088.19;;;15.92;100.00
13041;BME280;6587;42.728;23.288;2023-05-25T00:20:19;95093.75;;;16.07;100.00
13041;BME280;6587;42.728;23.288;2023-05-25T00:22:45;95092.81;;;16.11;100.00
13041;BME280;6587;42.728;23.288;2023-05-25T00:25:12;95093.75;;;16.07;100.00
13041;BME280;6587;42.728;23.288;2023-05-25T00:27:41;95090.44;;;16.04;100.00
13041;BME280;6587;42.728;23.288;2023-05-25T00:30:08;95092.03;;;16.09;100.00
13041;BME280;6587;42.728;23.288;2023-05-25T00:32:35;95087.31;;;15.94;100.00
13041;BME280;6587;42.728;23.288;2023-05-25T00:35:02;95090.78;;;15.88;100.00
13041;BME280;6587;42.728;23.288;2023-05-25T00:37:29;95095.25;;;15.77;100.00
13041;BME280;6587;42.728;23.288;2023-05-25T00:39:56;95090.44;;;15.63;100.00
13041;BME280;6587;42.728;23.288;2023-05-25T00:42:23;95092.94;;;15.67;100.00
13041;BME280;6587;42.728;23.288;2023-05-25T00:44:51;95088.72;;;15.67;100.00
13041;BME280;6587;42.728;23.288;2023-05-25T00:47:19;95097.31;;;15.57;100.00
13041;BME280;6587;42.728;23.288;2023-05-25T00:49:46;95087.47;;;15.43;100.00
13041;BME280;6587;42.728;23.288;2023-05-25T00:52:13;95091.91;;;15.32;100.00
13041;BME280;6587;42.728;23.288;2023-05-25T00:54:44;95100.34;;;15.32;100.00
13041;BME280;6587;42.728;23.288;2023-05-25T00:57:13;95096.09;;;15.33;100.00
13041;BME280;6587;42.728;23.288;2023-05-25T00:59:45;95095.97;;;15.39;100.00
13041;BME280;6587;42.728;23.288;2023-05-25T01:02:17;95101.69;;;15.49;100.00
13041;BME280;6587;42.728;23.288;2023-05-25T01:04:48;95096.88;;;15.36;100.00
13041;BME280;6587;42.728;23.288;2023-05-25T01:07:18;95100.81;;;15.51;100.00
13041;BME280;6587;42.728;23.288;2023-05-25T01:09:49;95109.00;;;15.62;100.00
13041;BME280;6587;42.728;23.288;2023-05-25T01:12:18;95103.19;;;15.57;100.00
13041;BME280;6587;42.728;23.288;2023-05-25T01:14:46;95100.41;;;15.71;100.00
13041;BME280;6587;42.728;23.288;2023-05-25T01:17:15;95103.06;;;15.63;100.00
13041;BME280;6587;42.728;23.288;2023-05-25T01:19:44;95105.66;;;15.62;100.00
13041;BME280;6587;42.728;23.288;2023-05-25T01:22:18;95100.69;;;15.56;100.00
13041;BME280;6587;42.728;23.288;2023-05-25T01:24:50;95096.53;;;15.55;100.00
13041;BME280;6587;42.728;23.288;2023-05-25T01:27:24;95095.75;;;15.51;100.00
13041;BME280;6587;42.728;23.288;2023-05-25T01:29:53;95094.41;;;15.32;100.00
13041;BME280;6587;42.728;23.288;2023-05-25T01:32:22;95093.72;;;14.77;100.00
13041;BME280;6587;42.728;23.288;2023-05-25T01:34:50;95094.69;;;14.70;100.00
13041;BME280;6587;42.728;23.288;2023-05-25T01:37:19;95091.88;;;14.87;100.00
13041;BME280;6587;42.728;23.288;2023-05-25T01:39:47;95085.81;;;14.97;100.00
13041;BME280;6587;42.728;23.288;2023-05-25T01:42:14;95079.41;;;15.24;100.00
13041;BME280;6587;42.728;23.288;2023-05-25T01:44:41;95076.78;;;15.30;100.00
13041;BME280;6587;42.728;23.288;2023-05-25T01:47:15;95075.94;;;15.30;100.00
13041;BME280;6587;42.728;23.288;2023-05-25T01:49:51;95074.31;;;15.27;100.00
13041;BME280;6587;42.728;23.288;2023-05-25T01:52:25;95077.06;;;15.15;100.00
13041;BME280;6587;42.728;23.288;2023-05-25T01:54:56;95077.75;;;15.23;100.00
13041;BME280;6587;42.728;23.288;2023-05-25T01:57:28;95080.28;;;15.23;100.00
13041;BME280;6587;42.728;23.288;2023-05-25T01:59:56;95088.25;;;15.02;100.00
13041;BME280;6587;42.728;23.288;2023-05-25T02:02:25;95092.53;;;14.98;100.00
13041;BME280;6587;42.728;23.288;2023-05-25T02:04:53;95090.78;;;15.03;100.00
13041;BME280;6587;42.728;23.288;2023-05-25T02:07:23;95097.50;;;15.03;100.00
13041;BME280;6587;42.728;23.288;2023-05-25T02:09:50;95098.47;;;14.96;100.00
13041;BME280;6587;42.728;23.288;2023-05-25T02:12:16;95099.09;;;14.59;100.00
13041;BME280;6587;42.728;23.288;2023-05-25T02:14:43;95101.47;;;14.68;100.00
13041;BME280;6587;42.728;23.288;2023-05-25T02:17:13;95108.41;;;14.57;100.00
13041;BME280;6587;42.728;23.288;2023-05-25T02:19:42;95104.56;;;14.30;100.00
13041;BME280;6587;42.728;23.288;2023-05-25T02:22:09;95107.19;;;14.24;100.00
13041;BME280;6587;42.728;23.288;2023-05-25T02:24:37;95107.25;;;14.19;100.00
13041;BME280;6587;42.728;23.288;2023-05-25T02:27:05;95105.34;;;14.35;100.00
13041;BME280;6587;42.728;23.288;2023-05-25T02:29:32;95114.50;;;14.40;100.00
13041;BME280;6587;42.728;23.288;2023-05-25T02:31:59;95113.41;;;14.58;100.00
13041;BME280;6587;42.728;23.288;2023-05-25T02:34:27;95112.50;;;14.64;100.00
13041;BME280;6587;42.728;23.288;2023-05-25T02:36:54;95115.09;;;14.58;100.00
13041;BME280;6587;42.728;23.288;2023-05-25T02:39:21;95121.09;;;14.51;100.00
13041;BME280;6587;42.728;23.288;2023-05-25T02:41:49;95134.59;;;14.47;100.00
13041;BME280;6587;42.728;23.288;2023-05-25T02:44:18;95119.75;;;14.27;100.00
13041;BME280;6587;42.728;23.288;2023-05-25T02:46:45;95131.13;;;14.55;100.00
13041;BME280;6587;42.728;23.288;2023-05-25T02:49:13;95123.41;;;14.64;100.00
13041;BME280;6587;42.728;23.288;2023-05-25T02:51:40;95134.25;;;14.69;100.00
13041;BME280;6587;42.728;23.288;2023-05-25T02:54:07;95135.41;;;14.50;100.00
13041;BME280;6587;42.728;23.288;2023-05-25T02:56:34;95132.41;;;14.25;100.00
13041;BME280;6587;42.728;23.288;2023-05-25T02:59:03;95132.50;;;14.17;100.00
13041;BME280;6587;42.728;23.288;2023-05-25T03:01:31;95135.75;;;14.26;100.00
13041;BME280;6587;42.728;23.288;2023-05-25T03:03:59;95144.19;;;14.25;100.00
13041;BME280;6587;42.728;23.288;2023-05-25T03:06:30;95138.50;;;14.10;100.00
13041;BME280;6587;42.728;23.288;2023-05-25T03:09:04;95146.03;;;14.13;100.00
13041;BME280;6587;42.728;23.288;2023-05-25T03:11:31;95131.63;;;14.20;100.00
13041;BME280;6587;42.728;23.288;2023-05-25T03:14:00;95128.94;;;14.32;100.00
13041;BME280;6587;42.728;23.288;2023-05-25T03:16:30;95141.44;;;14.40;100.00
13041;BME280;6587;42.728;23.288;2023-05-25T03:19:02;95139.06;;;14.29;100.00
13041;BME280;6587;42.728;23.288;2023-05-25T03:21:31;95144.25;;;14.18;100.00
13041;BME280;6587;42.728;23.288;2023-05-25T03:23:58;95132.31;;;14.30;100.00
13041;BME280;6587;42.728;23.288;2023-05-25T03:26:25;95147.03;;;14.60;100.00
13041;BME280;6587;42.728;23.288;2023-05-25T03:28:53;95149.38;;;14.73;100.00
13041;BME280;6587;42.728;23.288;2023-05-25T03:31:20;95148.41;;;14.80;100.00
13041;BME280;6587;42.728;23.288;2023-05-25T03:33:49;95148.59;;;14.69;100.00
13041;BME280;6587;42.728;23.288;2023-05-25T03:36:17;95155.91;;;14.84;100.00
13041;BME280;6587;42.728;23.288;2023-05-25T03:38:44;95154.84;;;14.98;100.00
13041;BME280;6587;42.728;23.288;2023-05-25T03:41:11;95160.38;;;15.20;100.00
13041;BME280;6587;42.728;23.288;2023-05-25T03:43:38;95155.41;;;15.15;100.00
13041;BME280;6587;42.728;23.288;2023-05-25T03:46:06;95158.72;;;15.17;100.00
13041;BME280;6587;42.728;23.288;2023-05-25T03:48:34;95159.44;;;15.25;100.00
13041;BME280;6587;42.728;23.288;2023-05-25T03:51:04;95156.97;;;15.22;100.00
13041;BME280;6587;42.728;23.288;2023-05-25T03:53:31;95165.03;;;14.93;100.00
13041;BME280;6587;42.728;23.288;2023-05-25T03:55:58;95168.97;;;15.09;100.00
13041;BME280;6587;42.728;23.288;2023-05-25T03:58:25;95167.03;;;15.25;100.00
13041;BME280;6587;42.728;23.288;2023-05-25T04:00:52;95166.84;;;15.34;100.00
13041;BME280;6587;42.728;23.288;2023-05-25T04:03:19;95166.66;;;14.96;100.00
13041;BME280;6587;42.728;23.288;2023-05-25T04:05:46;95172.09;;;15.24;100.00
13041;BME280;6587;42.728;23.288;2023-05-25T04:08:15;95172.22;;;15.62;100.00
13041;BME280;6587;42.728;23.288;2023-05-25T04:10:43;95170.91;;;15.86;100.00
13041;BME280;6587;42.728;23.288;2023-05-25T04:13:09;95175.75;;;15.99;100.00
13041;BME280;6587;42.728;23.288;2023-05-25T04:15:37;95178.13;;;16.06;100.00
13041;BME280;6587;42.728;23.288;2023-05-25T04:18:22;95181.59;;;16.01;100.00
13041;BME280;6587;42.728;23.288;2023-05-25T04:20:49;95183.66;;;16.24;100.00
13041;BME280;6587;42.728;23.288;2023-05-25T04:23:21;95189.19;;;16.41;100.00
13041;BME280;6587;42.728;23.288;2023-05-25T04:25:50;95188.63;;;16.28;100.00
13041;BME280;6587;42.728;23.288;2023-05-25T04:28:18;95189.88;;;16.48;100.00
13041;BME280;6587;42.728;23.288;2023-05-25T04:30:54;95193.34;;;16.44;100.00
13041;BME280;6587;42.728;23.288;2023-05-25T04:33:30;95194.88;;;16.51;100.00
13041;BME280;6587;42.728;23.288;2023-05-25T04:36:13;95198.00;;;16.62;100.00
13041;BME280;6587;42.728;23.288;2023-05-25T04:38:41;95197.94;;;16.65;100.00
13041;BME280;6587;42.728;23.288;2023-05-25T04:41:13;95201.72;;;16.86;100.00
13041;BME280;6587;42.728;23.288;2023-05-25T04:43:43;95194.94;;;17.21;100.00
13041;BME280;6587;42.728;23.288;2023-05-25T04:46:12;95199.69;;;16.99;100.00
13041;BME280;6587;42.728;23.288;2023-05-25T04:48:42;95202.25;;;16.99;100.00
13041;BME280;6587;42.728;23.288;2023-05-25T04:51:10;95200.97;;;17.17;100.00
13041;BME280;6587;42.728;23.288;2023-05-25T04:53:37;95201.78;;;17.17;100.00
13041;BME280;6587;42.728;23.288;2023-05-25T04:56:05;95192.34;;;16.90;100.00
13041;BME280;6587;42.728;23.288;2023-05-25T04:58:32;95185.50;;;16.92;100.00
13041;BME280;6587;42.728;23.288;2023-05-25T05:00:59;95185.97;;;16.70;100.00
13041;BME280;6587;42.728;23.288;2023-05-25T05:03:27;95188.53;;;16.70;100.00
13041;BME280;6587;42.728;23.288;2023-05-25T05:05:53;95187.28;;;16.88;100.00
13041;BME280;6587;42.728;23.288;2023-05-25T05:08:24;95195.75;;;16.89;100.00
13041;BME280;6587;42.728;23.288;2023-05-25T05:10:51;95192.84;;;17.04;100.00
13041;BME280;6587;42.728;23.288;2023-05-25T05:13:19;95190.03;;;17.15;100.00
13041;BME280;6587;42.728;23.288;2023-05-25T05:15:46;95192.03;;;17.02;100.00
13041;BME280;6587;42.728;23.288;2023-05-25T05:18:13;95191.34;;;16.95;100.00
13041;BME280;6587;42.728;23.288;2023-05-25T05:20:41;95194.41;;;16.72;100.00
13041;BME280;6587;42.728;23.288;2023-05-25T05:23:09;95196.22;;;16.67;100.00
13041;BME280;6587;42.728;23.288;2023-05-25T05:25:36;95193.31;;;16.84;100.00
13041;BME280;6587;42.728;23.288;2023-05-25T05:28:03;95198.66;;;17.07;100.00
13041;BME280;6587;42.728;23.288;2023-05-25T05:30:37;95208.81;;;17.07;100.00
13041;BME280;6587;42.728;23.288;2023-05-25T05:33:04;95206.91;;;17.16;100.00
13041;BME280;6587;42.728;23.288;2023-05-25T05:35:36;95214.81;;;17.38;100.00
13041;BME280;6587;42.728;23.288;2023-05-25T05:38:10;95218.59;;;17.55;100.00
13041;BME280;6587;42.728;23.288;2023-05-25T05:40:37;95214.19;;;17.62;100.00
13041;BME280;6587;42.728;23.288;2023-05-25T05:43:05;95206.69;;;17.58;100.00
13041;BME280;6587;42.728;23.288;2023-05-25T05:45:32;95206.94;;;17.48;100.00
13041;BME280;6587;42.728;23.288;2023-05-25T05:48:01;95210.47;;;17.75;100.00
13041;BME280;6587;42.728;23.288;2023-05-25T05:50:29;95210.91;;;17.59;100.00
13041;BME280;6587;42.728;23.288;2023-05-25T05:52:57;95211.66;;;17.93;100.00
13041;BME280;6587;42.728;23.288;2023-05-25T05:55:24;95208.59;;;17.82;100.00
13041;BME280;6587;42.728;23.288;2023-05-25T05:57:51;95210.81;;;18.24;100.00
13041;BME280;6587;42.728;23.288;2023-05-25T06:00:19;95212.19;;;18.64;100.00
13041;BME280;6587;42.728;23.288;2023-05-25T06:02:46;95217.66;;;18.80;100.00
13041;BME280;6587;42.728;23.288;2023-05-25T06:05:19;95218.22;;;18.88;100.00
13041;BME280;6587;42.728;23.288;2023-05-25T06:07:46;95214.78;;;18.90;100.00
13041;BME280;6587;42.728;23.288;2023-05-25T06:10:14;95205.47;;;19.16;100.00
13041;BME280;6587;42.728;23.288;2023-05-25T06:12:42;95221.88;;;19.07;100.00
13041;BME280;6587;42.728;23.288;2023-05-25T06:15:10;95210.25;;;18.72;100.00
13041;BME280;6587;42.728;23.288;2023-05-25T06:17:38;95215.69;;;18.88;100.00
13041;BME280;6587;42.728;23.288;2023-05-25T06:20:09;95174.00;;;18.65;100.00
13041;BME280;6587;42.728;23.288;2023-05-25T06:22:38;95215.06;;;19.08;100.00
13041;BME280;6587;42.728;23.288;2023-05-25T06:25:06;95215.25;;;18.75;100.00
13041;BME280;6587;42.728;23.288;2023-05-25T06:27:36;95222.94;;;19.27;100.00
13041;BME280;6587;42.728;23.288;2023-05-25T06:30:03;95216.34;;;19.73;100.00
13041;BME280;6587;42.728;23.288;2023-05-25T06:32:30;95222.28;;;19.96;100.00
13041;BME280;6587;42.728;23.288;2023-05-25T06:34:57;95223.69;;;19.55;100.00
13041;BME280;6587;42.728;23.288;2023-05-25T06:37:26;95223.09;;;19.97;100.00
13041;BME280;6587;42.728;23.288;2023-05-25T06:40:03;95228.47;;;19.89;100.00
13041;BME280;6587;42.728;23.288;2023-05-25T06:42:30;95229.63;;;20.04;100.00
13041;BME280;6587;42.728;23.288;2023-05-25T06:45:01;95223.19;;;20.19;100.00
13041;BME280;6587;42.728;23.288;2023-05-25T06:47:28;95225.88;;;20.14;100.00
13041;BME280;6587;42.728;23.288;2023-05-25T06:49:55;95232.28;;;20.50;100.00
13041;BME280;6587;42.728;23.288;2023-05-25T06:52:22;95226.84;;;20.81;100.00
13041;BME280;6587;42.728;23.288;2023-05-25T06:54:52;95223.72;;;20.51;100.00
13041;BME280;6587;42.728;23.288;2023-05-25T06:57:20;95221.75;;;20.59;100.00
13041;BME280;6587;42.728;23.288;2023-05-25T06:59:47;95220.31;;;20.96;100.00
13041;BME280;6587;42.728;23.288;2023-05-25T07:02:14;95225.13;;;21.24;100.00
13041;BME280;6587;42.728;23.288;2023-05-25T07:04:41;95215.22;;;21.58;100.00
13041;BME280;6587;42.728;23.288;2023-05-25T07:07:08;95217.47;;;21.66;100.00
13041;BME280;6587;42.728;23.288;2023-05-25T07:09:37;95207.16;;;21.88;100.00
13041;BME280;6587;42.728;23.288;2023-05-25T07:12:04;95216.75;;;21.83;100.00
13041;BME280;6587;42.728;23.288;2023-05-25T07:14:34;95203.09;;;21.84;100.00
13041;BME280;6587;42.728;23.288;2023-05-25T07:17:01;95208.94;;;21.47;100.00
13041;BME280;6587;42.728;23.288;2023-05-25T07:19:28;95212.88;;;21.33;100.00
13041;BME280;6587;42.728;23.288;2023-05-25T07:21:55;95209.09;;;21.62;100.00
13041;BME280;6587;42.728;23.288;2023-05-25T07:24:22;95217.09;;;22.15;100.00
13041;BME280;6587;42.728;23.288;2023-05-25T07:26:48;95212.41;;;22.24;100.00
13041;BME280;6587;42.728;23.288;2023-05-25T07:29:15;95216.53;;;21.26;100.00
13041;BME280;6587;42.728;23.288;2023-05-25T07:31:43;95224.94;;;21.50;100.00
13041;BME280;6587;42.728;23.288;2023-05-25T07:34:10;95223.25;;;21.29;100.00
13041;BME280;6587;42.728;23.288;2023-05-25T07:36:37;95217.47;;;21.46;100.00
13041;BME280;6587;42.728;23.288;2023-05-25T07:39:04;95229.44;;;22.05;100.00
13041;BME280;6587;42.728;23.288;2023-05-25T07:41:31;95229.06;;;22.71;94.08
13041;BME280;6587;42.728;23.288;2023-05-25T07:43:58;95220.91;;;22.63;92.36
13041;BME280;6587;42.728;23.288;2023-05-25T07:46:25;95219.16;;;22.25;88.85
13041;BME280;6587;42.728;23.288;2023-05-25T07:48:53;95224.50;;;22.21;91.40
13041;BME280;6587;42.728;23.288;2023-05-25T07:51:20;95224.28;;;22.25;90.94
13041;BME280;6587;42.728;23.288;2023-05-25T07:53:50;95226.56;;;21.92;93.25
13041;BME280;6587;42.728;23.288;2023-05-25T07:56:18;95222.69;;;21.83;92.43
13041;BME280;6587;42.728;23.288;2023-05-25T07:58:45;95226.56;;;21.92;92.83
13041;BME280;6587;42.728;23.288;2023-05-25T08:01:12;95233.41;;;21.92;89.49
13041;BME280;6587;42.728;23.288;2023-05-25T08:03:40;95249.44;;;21.75;95.44
13041;BME280;6587;42.728;23.288;2023-05-25T08:06:09;95257.28;;;21.70;94.90
13041;BME280;6587;42.728;23.288;2023-05-25T08:08:36;95262.84;;;21.59;98.29
13041;BME280;6587;42.728;23.288;2023-05-25T08:11:03;95269.41;;;20.79;95.82
13041;BME280;6587;42.728;23.288;2023-05-25T08:13:30;95283.47;;;19.95;100.00
13041;BME280;6587;42.728;23.288;2023-05-25T08:15:57;95282.25;;;20.05;100.00
13041;BME280;6587;42.728;23.288;2023-05-25T08:18:23;95287.16;;;19.86;100.00
13041;BME280;6587;42.728;23.288;2023-05-25T08:20:50;95289.56;;;19.64;100.00
13041;BME280;6587;42.728;23.288;2023-05-25T08:23:18;95285.66;;;19.54;100.00
13041;BME280;6587;42.728;23.288;2023-05-25T08:25:46;95297.19;;;19.64;100.00
13041;BME280;6587;42.728;23.288;2023-05-25T08:28:13;95298.78;;;19.68;100.00
13041;BME280;6587;42.728;23.288;2023-05-25T08:30:40;95289.84;;;19.55;100.00
13041;BME280;6587;42.728;23.288;2023-05-25T08:33:09;95275.69;;;18.93;100.00
13041;BME280;6587;42.728;23.288;2023-05-25T08:35:35;95279.00;;;18.38;100.00
13041;BME280;6587;42.728;23.288;2023-05-25T08:38:05;95277.78;;;17.89;100.00
13041;BME280;6587;42.728;23.288;2023-05-25T08:40:33;95278.16;;;17.39;100.00
13041;BME280;6587;42.728;23.288;2023-05-25T08:43:00;95271.81;;;17.23;100.00
13041;BME280;6587;42.728;23.288;2023-05-25T08:45:27;95280.50;;;17.13;100.00
13041;BME280;6587;42.728;23.288;2023-05-25T08:47:57;95273.59;;;17.19;100.00
13041;BME280;6587;42.728;23.288;2023-05-25T08:50:26;95282.47;;;17.36;100.00
13041;BME280;6587;42.728;23.288;2023-05-25T08:52:54;95288.59;;;17.27;100.00
13041;BME280;6587;42.728;23.288;2023-05-25T08:55:24;95297.53;;;17.43;100.00
13041;BME280;6587;42.728;23.288;2023-05-25T08:58:00;95297.63;;;17.39;100.00
13041;BME280;6587;42.728;23.288;2023-05-25T09:00:31;95301.19;;;16.94;100.00
13041;BME280;6587;42.728;23.288;2023-05-25T09:03:05;95308.50;;;17.06;100.00
13041;BME280;6587;42.728;23.288;2023-05-25T09:05:33;95309.59;;;17.33;100.00
13041;BME280;6587;42.728;23.288;2023-05-25T09:08:01;95311.53;;;17.22;100.00
13041;BME280;6587;42.728;23.288;2023-05-25T09:10:29;95316.38;;;17.31;100.00
13041;BME280;6587;42.728;23.288;2023-05-25T09:13:00;95314.59;;;17.37;100.00
13041;BME280;6587;42.728;23.288;2023-05-25T09:15:27;95313.66;;;17.39;100.00
13041;BME280;6587;42.728;23.288;2023-05-25T09:17:54;95314.41;;;17.78;100.00
13041;BME280;6587;42.728;23.288;2023-05-25T09:20:22;95312.28;;;17.97;100.00
13041;BME280;6587;42.728;23.288;2023-05-25T09:22:51;95311.34;;;17.66;100.00
13041;BME280;6587;42.728;23.288;2023-05-25T09:25:18;95305.69;;;18.21;100.00
13041;BME280;6587;42.728;23.288;2023-05-25T09:27:45;95311.81;;;18.14;100.00
13041;BME280;6587;42.728;23.288;2023-05-25T09:30:14;95316.25;;;18.06;100.00
13041;BME280;6587;42.728;23.288;2023-05-25T09:32:41;95312.81;;;18.09;100.00
13041;BME280;6587;42.728;23.288;2023-05-25T09:35:09;95308.53;;;18.40;100.00
13041;BME280;6587;42.728;23.288;2023-05-25T09:37:36;95312.38;;;18.55;100.00
13041;BME280;6587;42.728;23.288;2023-05-25T09:40:03;95305.75;;;17.87;100.00
13041;BME280;6587;42.728;23.288;2023-05-25T09:42:31;95309.44;;;17.74;100.00
13041;BME280;6587;42.728;23.288;2023-05-25T09:44:58;95310.34;;;17.71;100.00
13041;BME280;6587;42.728;23.288;2023-05-25T09:47:27;95307.97;;;17.99;100.00
13041;BME280;6587;42.728;23.288;2023-05-25T09:49:55;95304.56;;;17.32;100.00
13041;BME280;6587;42.728;23.288;2023-05-25T09:52:22;95299.81;;;17.52;100.00
13041;BME280;6587;42.728;23.288;2023-05-25T09:54:50;95304.88;;;17.88;100.00
13041;BME280;6587;42.728;23.288;2023-05-25T09:57:18;95307.66;;;18.72;100.00
13041;BME280;6587;42.728;23.288;2023-05-25T09:59:45;95306.22;;;18.93;100.00
13041;BME280;6587;42.728;23.288;2023-05-25T10:02:13;95307.75;;;19.52;100.00
13041;BME280;6587;42.728;23.288;2023-05-25T10:04:42;95301.09;;;19.48;100.00
13041;BME280;6587;42.728;23.288;2023-05-25T10:07:08;95300.19;;;20.02;100.00
13041;BME280;6587;42.728;23.288;2023-05-25T10:09:39;95302.06;;;20.46;100.00
13041;BME280;6587;42.728;23.288;2023-05-25T10:12:06;95295.25;;;20.23;100.00
13041;BME280;6587;42.728;23.288;2023-05-25T10:14:35;95289.47;;;20.17;100.00
13041;BME280;6587;42.728;23.288;2023-05-25T10:17:04;95287.34;;;20.05;100.00
13041;BME280;6587;42.728;23.288;2023-05-25T10:19:35;95280.22;;;20.85;100.00
13041;BME280;6587;42.728;23.288;2023-05-25T10:22:13;95272.13;;;20.52;100.00
13041;BME280;6587;42.728;23.288;2023-05-25T10:24:45;95275.38;;;20.56;100.00
13041;BME280;6587;42.728;23.288;2023-05-25T10:27:18;95276.13;;;21.03;100.00
13041;BME280;6587;42.728;23.288;2023-05-25T10:29:46;95265.94;;;20.81;100.00
13041;BME280;6587;42.728;23.288;2023-05-25T10:32:15;95260.63;;;21.30;100.00
13041;BME280;6587;42.728;23.288;2023-05-25T10:34:42;95249.88;;;21.44;100.00
13041;BME280;6587;42.728;23.288;2023-05-25T10:37:11;95257.91;;;21.12;100.00
13041;BME280;6587;42.728;23.288;2023-05-25T10:39:40;95247.59;;;20.72;100.00
13041;BME280;6587;42.728;23.288;2023-05-25T10:42:08;95250.50;;;20.15;100.00
13041;BME280;6587;42.728;23.288;2023-05-25T10:44:35;95239.63;;;20.34;100.00
13041;BME280;6587;42.728;23.288;2023-05-25T10:47:03;95235.44;;;19.84;100.00
13041;BME280;6587;42.728;23.288;2023-05-25T10:49:30;95237.53;;;19.98;100.00
13041;BME280;6587;42.728;23.288;2023-05-25T10:51:59;95231.94;;;19.62;100.00
13041;BME280;6587;42.728;23.288;2023-05-25T10:54:29;95229.78;;;19.51;100.00
13041;BME280;6587;42.728;23.288;2023-05-25T10:57:10;95220.66;;;18.92;100.00
13041;BME280;6587;42.728;23.288;2023-05-25T10:59:41;95220.00;;;18.86;100.00
13041;BME280;6587;42.728;23.288;2023-05-25T11:02:10;95217.91;;;19.25;100.00
13041;BME280;6587;42.728;23.288;2023-05-25T11:04:37;95215.03;;;19.36;100.00
13041;BME280;6587;42.728;23.288;2023-05-25T11:07:05;95219.44;;;19.56;100.00
13041;BME280;6587;42.728;23.288;2023-05-25T11:09:55;95217.09;;;20.00;100.00
13041;BME280;6587;42.728;23.288;2023-05-25T11:12:22;95221.50;;;20.18;100.00
13041;BME280;6587;42.728;23.288;2023-05-25T11:15:11;95216.59;;;21.25;100.00
13041;BME280;6587;42.728;23.288;2023-05-25T11:17:44;95221.00;;;21.43;100.00
13041;BME280;6587;42.728;23.288;2023-05-25T11:20:21;95216.25;;;21.34;100.00
13041;BME280;6587;42.728;23.288;2023-05-25T11:22:50;95214.91;;;21.66;100.00
13041;BME280;6587;42.728;23.288;2023-05-25T11:25:39;95222.94;;;21.77;100.00
13041;BME280;6587;42.728;23.288;2023-05-25T11:28:08;95222.44;;;21.69;100.00
13041;BME280;6587;42.728;23.288;2023-05-25T11:30:38;95221.81;;;22.03;100.00
13041;BME280;6587;42.728;23.288;2023-05-25T11:33:05;95224.16;;;21.69;100.00
13041;BME280;6587;42.728;23.288;2023-05-25T11:35:33;95218.38;;;21.23;100.00
13041;BME280;6587;42.728;23.288;2023-05-25T11:38:04;95221.28;;;20.71;100.00
13041;BME280;6587;42.728;23.288;2023-05-25T11:40:31;95218.63;;;20.51;100.00
13041;BME280;6587;42.728;23.288;2023-05-25T11:43:01;95215.25;;;20.50;100.00
13041;BME280;6587;42.728;23.288;2023-05-25T11:45:29;95216.16;;;20.48;100.00
13041;BME280;6587;42.728;23.288;2023-05-25T11:47:56;95215.59;;;21.29;100.00
13041;BME280;6587;42.728;23.288;2023-05-25T11:50:23;95213.44;;;21.60;100.00
13041;BME280;6587;42.728;23.288;2023-05-25T11:52:50;95212.16;;;22.10;100.00
13041;BME280;6587;42.728;23.288;2023-05-25T11:55:18;95214.47;;;22.92;100.00
13041;BME280;6587;42.728;23.288;2023-05-25T11:57:45;95211.63;;;23.15;100.00
13041;BME280;6587;42.728;23.288;2023-05-25T12:00:23;95203.72;;;23.20;100.00
13041;BME280;6587;42.728;23.288;2023-05-25T12:02:50;95203.19;;;23.65;100.00
13041;BME280;6587;42.728;23.288;2023-05-25T12:05:17;95197.88;;;23.35;98.41
13041;BME280;6587;42.728;23.288;2023-05-25T12:07:44;95188.22;;;24.24;96.11
13041;BME280;6587;42.728;23.288;2023-05-25T12:10:12;95194.81;;;25.07;97.50
13041;BME280;6587;42.728;23.288;2023-05-25T12:12:41;95186.19;;;24.62;85.92
13041;BME280;6587;42.728;23.288;2023-05-25T12:15:09;95193.00;;;24.47;95.75
13041;BME280;6587;42.728;23.288;2023-05-25T12:17:40;95193.69;;;25.27;80.63
13041;BME280;6587;42.728;23.288;2023-05-25T12:20:09;95179.66;;;24.41;70.30
13041;BME280;6587;42.728;23.288;2023-05-25T12:22:36;95167.34;;;25.39;65.16
13041;BME280;6587;42.728;23.288;2023-05-25T12:25:05;95157.38;;;26.21;70.32
13041;BME280;6587;42.728;23.288;2023-05-25T12:27:32;95159.56;;;27.22;61.25
13041;BME280;6587;42.728;23.288;2023-05-25T12:29:59;95154.91;;;26.60;58.33
13041;BME280;6587;42.728;23.288;2023-05-25T12:32:26;95155.66;;;27.17;56.93
13041;BME280;6587;42.728;23.288;2023-05-25T12:35:02;95133.56;;;27.78;53.64
13041;BME280;6587;42.728;23.288;2023-05-25T12:37:30;95126.38;;;28.07;50.33
13041;BME280;6587;42.728;23.288;2023-05-25T12:39:56;95132.50;;;27.68;54.86
13041;BME280;6587;42.728;23.288;2023-05-25T12:42:24;95126.53;;;28.29;51.68
13041;BME280;6587;42.728;23.288;2023-05-25T12:44:54;95122.91;;;28.69;47.50
13041;BME280;6587;42.728;23.288;2023-05-25T12:47:22;95117.78;;;28.19;52.47
13041;BME280;6587;42.728;23.288;2023-05-25T12:49:50;95114.25;;;27.96;48.30
13041;BME280;6587;42.728;23.288;2023-05-25T12:52:36;95108.41;;;28.90;47.61
13041;BME280;6587;42.728;23.288;2023-05-25T12:55:21;95105.34;;;29.09;47.49
13041;BME280;6587;42.728;23.288;2023-05-25T12:57:50;95089.22;;;28.46;46.68